createdAt,value
2018-07-01T00:00:51.122Z,8.85
2018-07-01T00:03:19.643Z,8.80
2018-07-01T00:05:48.142Z,7.42
2018-07-01T00:08:16.697Z,8.00
2018-07-01T00:10:45.315Z,7.35
2018-07-01T00:13:13.863Z,7.60
2018-07-01T00:15:42.310Z,7.80
2018-07-01T00:18:11.051Z,7.22
2018-07-01T00:20:39.528Z,7.67
2018-07-01T00:23:08.145Z,7.28
2018-07-01T00:25:36.710Z,7.30
2018-07-01T00:28:05.217Z,7.12
2018-07-01T00:30:33.922Z,7.28
2018-07-01T00:33:03.452Z,7.95
2018-07-01T00:35:31.942Z,6.95
2018-07-01T00:38:00.623Z,7.05
2018-07-01T00:40:29.108Z,7.85
2018-07-01T00:42:57.658Z,7.15
2018-07-01T00:45:26.255Z,7.53
2018-07-01T00:47:54.842Z,7.90
2018-07-01T00:50:23.711Z,7.30
2018-07-01T00:52:52.291Z,7.33
2018-07-01T00:55:20.830Z,7.17
2018-07-01T00:57:49.319Z,7.62
2018-07-01T01:00:21.928Z,7.47
2018-07-01T01:02:50.514Z,7.05
2018-07-01T01:05:19.063Z,7.17
2018-07-01T01:07:47.580Z,7.50
2018-07-01T01:10:16.168Z,7.80
2018-07-01T01:12:44.738Z,7.90
2018-07-01T01:15:13.247Z,8.13
2018-07-01T01:17:41.943Z,8.20
2018-07-01T01:20:10.514Z,7.12
2018-07-01T01:22:39.105Z,7.47
2018-07-01T01:25:07.756Z,8.15
2018-07-01T01:27:36.595Z,8.05
2018-07-01T01:30:05.359Z,7.65
2018-07-01T01:32:33.995Z,8.13
2018-07-01T01:35:02.541Z,8.23
2018-07-01T01:37:31.139Z,7.83
2018-07-01T01:39:59.940Z,8.28
2018-07-01T01:42:35.339Z,7.90
2018-07-01T01:45:13.214Z,7.72
2018-07-01T01:48:44.976Z,8.50
2018-07-01T01:51:17.565Z,8.20
2018-07-01T01:53:51.460Z,8.28
2018-07-01T02:03:04.238Z,8.37
2018-07-01T02:05:37.998Z,8.43
2018-07-01T02:08:09.163Z,8.60
2018-07-01T02:10:37.691Z,8.60
2018-07-01T02:13:06.571Z,7.80
2018-07-01T02:15:40.452Z,8.33
2018-07-01T02:18:09.145Z,8.00
2018-07-01T02:20:39.536Z,8.73
2018-07-01T02:23:16.423Z,8.65
2018-07-01T02:25:45.300Z,8.08
2018-07-01T02:28:13.899Z,8.48
2018-07-01T02:30:42.376Z,8.38
2018-07-01T02:33:10.895Z,7.73
2018-07-01T02:35:39.379Z,8.38
2018-07-01T02:38:07.888Z,8.20
2018-07-01T02:40:36.441Z,8.50
2018-07-01T02:43:05.308Z,8.60
2018-07-01T02:45:33.911Z,8.58
2018-07-01T02:48:02.584Z,7.90
2018-07-01T02:50:31.327Z,8.30
2018-07-01T02:52:59.911Z,8.58
2018-07-01T02:55:28.467Z,8.40
2018-07-01T02:57:56.899Z,8.53
2018-07-01T03:00:25.477Z,8.70
2018-07-01T03:02:53.976Z,8.27
2018-07-01T03:05:22.664Z,9.27
2018-07-01T03:07:55.215Z,8.80
2018-07-01T03:10:23.846Z,9.40
2018-07-01T03:12:52.364Z,8.43
2018-07-01T03:15:20.922Z,9.03
2018-07-01T03:17:50.423Z,8.27
2018-07-01T03:20:19.026Z,9.40
2018-07-01T03:22:47.724Z,8.30
2018-07-01T03:25:16.295Z,8.40
2018-07-01T03:27:44.842Z,8.93
2018-07-01T03:30:13.336Z,8.50
2018-07-01T03:32:41.811Z,8.63
2018-07-01T03:35:10.397Z,8.80
2018-07-01T03:37:38.851Z,8.33
2018-07-01T03:40:07.617Z,8.63
2018-07-01T03:42:36.116Z,8.97
2018-07-01T03:45:04.775Z,8.47
2018-07-01T03:47:33.300Z,9.43
2018-07-01T03:50:01.858Z,9.37
2018-07-01T03:52:30.431Z,8.17
2018-07-01T03:54:58.950Z,9.63
2018-07-01T03:57:27.479Z,9.17
2018-07-01T03:59:56.038Z,9.40
2018-07-01T04:02:24.593Z,9.40
2018-07-01T04:04:53.097Z,9.13
2018-07-01T04:07:21.549Z,8.70
2018-07-01T04:09:50.088Z,9.37
2018-07-01T04:12:18.625Z,9.60
2018-07-01T04:14:47.100Z,8.70
2018-07-01T04:17:15.555Z,9.20
2018-07-01T04:19:44.149Z,9.63
2018-07-01T04:22:12.675Z,9.67
2018-07-01T04:24:41.102Z,9.60
2018-07-01T04:27:13.974Z,9.80
2018-07-01T04:29:42.515Z,9.17
2018-07-01T04:32:11.166Z,9.33
2018-07-01T04:34:40.267Z,8.90
2018-07-01T04:37:08.787Z,9.23
2018-07-01T04:39:37.362Z,9.30
2018-07-01T04:42:05.864Z,8.87
2018-07-01T04:44:34.362Z,9.07
2018-07-01T04:47:02.994Z,8.40
2018-07-01T04:49:31.484Z,8.87
2018-07-01T04:51:59.982Z,9.20
2018-07-01T04:54:28.551Z,8.57
2018-07-01T04:56:57.039Z,7.80
2018-07-01T04:59:25.778Z,7.63
2018-07-01T05:01:54.388Z,7.43
2018-07-01T05:04:22.873Z,7.73
2018-07-01T05:06:51.327Z,8.10
2018-07-01T05:09:19.899Z,7.23
2018-07-01T05:11:48.412Z,6.97
2018-07-01T05:14:16.898Z,6.60
2018-07-01T05:16:45.417Z,5.50
2018-07-01T05:19:13.944Z,5.93
2018-07-01T05:21:42.430Z,5.90
2018-07-01T05:24:10.935Z,5.97
2018-07-01T05:26:39.412Z,5.40
2018-07-01T05:29:07.886Z,5.40
2018-07-01T05:31:36.374Z,5.10
2018-07-01T05:34:04.878Z,4.97
2018-07-01T05:36:33.416Z,6.37
2018-07-01T05:39:01.987Z,6.05
2018-07-01T05:41:30.531Z,5.83
2018-07-01T05:43:59.011Z,5.92
2018-07-01T05:46:27.784Z,6.33
2018-07-01T05:48:56.373Z,6.20
2018-07-01T05:51:24.855Z,6.37
2018-07-01T05:53:53.350Z,5.10
2018-07-01T05:56:21.947Z,5.25
2018-07-01T05:58:50.507Z,5.90
2018-07-01T06:01:18.956Z,5.33
2018-07-01T06:03:47.772Z,5.53
2018-07-01T06:06:16.219Z,5.20
2018-07-01T06:08:44.765Z,5.13
2018-07-01T06:11:13.252Z,5.20
2018-07-01T06:13:41.945Z,5.67
2018-07-01T06:16:10.466Z,5.90
2018-07-01T06:18:39.006Z,5.80
2018-07-01T06:21:07.567Z,6.15
2018-07-01T06:23:36.002Z,5.72
2018-07-01T06:26:04.824Z,5.70
2018-07-01T06:28:33.318Z,5.73
2018-07-01T06:31:02.030Z,5.35
2018-07-01T06:33:30.694Z,4.97
2018-07-01T06:35:59.252Z,5.30
2018-07-01T06:38:27.738Z,5.65
2018-07-01T06:40:56.190Z,6.12
2018-07-01T06:43:24.738Z,4.83
2018-07-01T06:45:53.272Z,4.35
2018-07-01T06:48:21.799Z,4.60
2018-07-01T06:50:50.370Z,4.97
2018-07-01T06:53:19.058Z,5.05
2018-07-01T06:55:47.598Z,4.95
2018-07-01T06:58:16.070Z,4.22
2018-07-01T07:00:44.619Z,4.35
2018-07-01T07:03:13.110Z,5.12
2018-07-01T07:05:41.631Z,4.95
2018-07-01T07:08:10.169Z,4.37
2018-07-01T07:10:38.750Z,4.65
2018-07-01T07:13:07.623Z,4.22
2018-07-01T07:15:36.167Z,4.30
2018-07-01T07:18:04.994Z,4.35
2018-07-01T07:20:33.732Z,5.15
2018-07-01T07:23:02.233Z,4.92
2018-07-01T07:25:30.782Z,4.50
2018-07-01T07:27:59.287Z,4.80
2018-07-01T07:30:27.823Z,4.45
2018-07-01T07:32:56.387Z,5.28
2018-07-01T07:35:24.923Z,4.67
2018-07-01T07:37:53.411Z,4.80
2018-07-01T07:40:22.145Z,5.03
2018-07-01T07:42:50.624Z,4.55
2018-07-01T07:45:19.272Z,5.10
2018-07-01T07:47:47.789Z,4.37
2018-07-01T07:50:16.277Z,4.70
2018-07-01T07:52:44.897Z,4.47
2018-07-01T07:55:13.463Z,4.92
2018-07-01T07:57:42.052Z,4.80
2018-07-01T08:00:10.974Z,4.92
2018-07-01T08:02:39.489Z,5.30
2018-07-01T08:05:08.120Z,5.00
2018-07-01T08:07:36.704Z,5.55
2018-07-01T08:10:05.376Z,6.17
2018-07-01T08:12:34.036Z,5.72
2018-07-01T08:15:02.632Z,5.80
2018-07-01T08:17:31.138Z,5.70
2018-07-01T08:19:59.688Z,5.65
2018-07-01T08:22:28.156Z,5.97
2018-07-01T08:24:56.655Z,5.17
2018-07-01T08:27:26.371Z,5.42
2018-07-01T08:29:54.900Z,5.30
2018-07-01T08:32:23.410Z,4.40
2018-07-01T08:34:52.001Z,4.50
2018-07-01T08:37:20.562Z,4.62
2018-07-01T08:39:49.177Z,4.80
2018-07-01T08:42:21.170Z,4.87
2018-07-01T08:44:50.446Z,4.12
2018-07-01T08:47:19.264Z,3.50
2018-07-01T08:49:47.810Z,4.40
2018-07-01T08:52:16.596Z,3.83
2018-07-01T08:54:45.328Z,4.60
2018-07-01T08:57:15.346Z,4.20
2018-07-01T08:59:44.777Z,4.70
2018-07-01T09:02:13.359Z,5.50
2018-07-01T09:04:42.575Z,5.15
2018-07-01T09:07:11.218Z,5.28
2018-07-01T09:09:39.898Z,5.10
2018-07-01T09:12:08.436Z,4.67
2018-07-01T09:14:37.016Z,5.62
2018-07-01T09:17:05.923Z,5.35
2018-07-01T09:19:34.514Z,5.20
2018-07-01T09:22:03.223Z,4.50
2018-07-01T09:24:31.775Z,5.03
2018-07-01T09:27:03.615Z,4.85
2018-07-01T09:29:32.125Z,5.10
2018-07-01T09:32:00.588Z,4.62
2018-07-01T09:34:29.727Z,5.10
2018-07-01T09:36:58.766Z,4.22
2018-07-01T09:39:27.363Z,4.50
2018-07-01T09:41:56.387Z,4.37
2018-07-01T09:44:25.067Z,4.83
2018-07-01T09:46:53.553Z,4.67
2018-07-01T09:49:22.046Z,4.83
2018-07-01T09:51:50.627Z,4.85
2018-07-01T09:54:19.227Z,4.80
2018-07-01T09:56:47.811Z,4.33
2018-07-01T09:59:16.374Z,4.10
2018-07-01T10:01:44.939Z,4.60
2018-07-01T10:04:13.473Z,4.50
2018-07-01T10:06:41.914Z,4.60
2018-07-01T10:09:11.130Z,4.40
2018-07-01T10:11:39.787Z,4.67
2018-07-01T10:14:09.136Z,3.90
2018-07-01T10:16:37.675Z,4.65
2018-07-01T10:19:06.366Z,4.20
2018-07-01T10:21:34.971Z,4.60
2018-07-01T10:24:03.544Z,3.90
2018-07-01T10:26:32.162Z,4.00
2018-07-01T10:29:10.380Z,3.62
2018-07-01T10:31:39.527Z,3.87
2018-07-01T10:34:09.086Z,4.20
2018-07-01T10:36:37.654Z,4.15
2018-07-01T10:39:09.312Z,3.55
2018-07-01T10:41:39.238Z,4.00
2018-07-01T10:44:07.767Z,3.65
2018-07-01T10:46:36.363Z,3.77
2018-07-01T10:49:05.401Z,4.08
2018-07-01T10:51:33.965Z,3.67
2018-07-01T10:54:02.648Z,3.47
2018-07-01T10:56:31.310Z,4.15
2018-07-01T10:58:59.982Z,3.80
2018-07-01T11:01:28.571Z,3.87
2018-07-01T11:03:57.158Z,4.08
2018-07-01T11:06:25.782Z,3.70
2018-07-01T11:08:54.255Z,3.75
2018-07-01T11:11:22.789Z,3.65
2018-07-01T11:13:51.700Z,3.80
2018-07-01T11:16:20.280Z,3.58
2018-07-01T11:18:48.946Z,3.75
2018-07-01T11:21:17.464Z,3.50
2018-07-01T11:23:46.012Z,4.12
2018-07-01T11:26:14.487Z,3.60
2018-07-01T11:28:42.964Z,4.03
2018-07-01T11:31:11.699Z,3.45
2018-07-01T11:33:40.282Z,3.77
2018-07-01T11:36:08.859Z,2.95
2018-07-01T11:38:37.414Z,3.50
2018-07-01T11:41:05.960Z,3.45
2018-07-01T11:43:34.608Z,4.30
2018-07-01T11:46:03.258Z,3.42
2018-07-01T11:48:31.903Z,3.80
2018-07-01T11:51:00.539Z,3.55
2018-07-01T11:53:29.204Z,3.77
2018-07-01T11:55:57.794Z,3.47
2018-07-01T11:58:26.394Z,3.87
2018-07-01T12:00:54.995Z,3.40
2018-07-01T12:03:23.448Z,3.58
2018-07-01T12:05:52.111Z,3.62
2018-07-01T12:08:20.633Z,3.77
2018-07-01T12:10:49.287Z,3.12
2018-07-01T12:13:17.905Z,3.83
2018-07-01T12:15:46.402Z,3.52
2018-07-01T12:18:14.983Z,3.77
2018-07-01T12:20:43.573Z,4.08
2018-07-01T12:23:12.230Z,3.47
2018-07-01T12:25:40.765Z,3.90
2018-07-01T12:28:09.328Z,3.55
2018-07-01T12:30:37.887Z,4.25
2018-07-01T12:33:06.464Z,3.00
2018-07-01T12:35:35.075Z,3.55
2018-07-01T12:38:03.833Z,3.60
2018-07-01T12:40:32.601Z,3.65
2018-07-01T12:43:01.315Z,3.35
2018-07-01T12:45:29.812Z,3.42
2018-07-01T12:47:58.386Z,3.17
2018-07-01T12:50:26.993Z,3.30
2018-07-01T12:52:55.768Z,3.77
2018-07-01T12:55:24.436Z,4.17
2018-07-01T12:57:53.036Z,3.90
2018-07-01T13:00:21.495Z,3.25
2018-07-01T13:02:50.096Z,3.08
2018-07-01T13:05:18.573Z,3.50
2018-07-01T13:07:47.107Z,3.87
2018-07-01T13:10:15.766Z,3.70
2018-07-01T13:12:44.316Z,3.67
2018-07-01T13:15:15.079Z,3.75
2018-07-01T13:17:43.672Z,3.58
2018-07-01T13:20:12.191Z,2.92
2018-07-01T13:22:40.713Z,3.55
2018-07-01T13:25:09.304Z,3.27
2018-07-01T13:27:37.867Z,3.47
2018-07-01T13:30:06.583Z,3.40
2018-07-01T13:32:35.663Z,3.15
2018-07-01T13:35:04.223Z,3.22
2018-07-01T13:37:32.712Z,3.17
2018-07-01T13:40:01.195Z,3.35
2018-07-01T13:42:29.684Z,3.47
2018-07-01T13:44:58.406Z,3.30
2018-07-01T13:47:26.975Z,3.30
2018-07-01T13:49:59.679Z,3.22
2018-07-01T13:52:28.286Z,2.90
2018-07-01T13:54:56.909Z,2.95
2018-07-01T13:57:25.497Z,3.30
2018-07-01T13:59:53.976Z,2.98
2018-07-01T14:02:22.552Z,2.85
2018-07-01T14:04:51.207Z,3.45
2018-07-01T14:07:21.640Z,3.17
2018-07-01T14:09:50.303Z,3.10
2018-07-01T14:12:18.824Z,2.95
2018-07-01T14:14:47.392Z,3.27
2018-07-01T14:17:15.920Z,2.92
2018-07-01T14:19:44.568Z,3.20
2018-07-01T14:22:13.077Z,3.00
2018-07-01T14:24:41.683Z,2.90
2018-07-01T14:27:10.252Z,2.92
2018-07-01T14:29:38.790Z,2.80
2018-07-01T14:32:07.483Z,3.10
2018-07-01T14:34:35.989Z,3.25
2018-07-01T14:37:04.855Z,2.75
2018-07-01T14:39:33.418Z,3.22
2018-07-01T14:42:02.053Z,3.25
2018-07-01T14:44:30.616Z,3.00
2018-07-01T14:46:59.181Z,3.02
2018-07-01T14:49:27.972Z,3.17
2018-07-01T14:51:56.469Z,3.12
2018-07-01T14:54:25.066Z,3.05
2018-07-01T14:56:53.558Z,2.98
2018-07-01T14:59:22.172Z,3.30
2018-07-01T15:01:50.695Z,2.70
2018-07-01T15:04:19.170Z,2.67
2018-07-01T15:06:47.633Z,3.25
2018-07-01T15:09:16.136Z,3.30
2018-07-01T15:11:44.587Z,3.27
2018-07-01T15:14:13.170Z,3.20
2018-07-01T15:16:41.666Z,2.90
2018-07-01T15:19:10.275Z,3.42
2018-07-01T15:21:38.805Z,3.08
2018-07-01T15:24:07.309Z,2.80
2018-07-01T15:26:35.815Z,3.05
2018-07-01T15:29:04.504Z,3.08
2018-07-01T15:31:32.982Z,3.10
2018-07-01T15:34:01.439Z,3.30
2018-07-01T15:36:30.263Z,3.15
2018-07-01T15:38:58.944Z,2.98
2018-07-01T15:41:27.499Z,3.52
2018-07-01T15:43:56.008Z,2.52
2018-07-01T15:46:24.702Z,2.58
2018-07-01T15:48:53.291Z,2.80
2018-07-01T15:51:21.847Z,2.60
2018-07-01T15:53:50.325Z,2.92
2018-07-01T15:56:18.879Z,3.08
2018-07-01T15:58:47.422Z,3.00
2018-07-01T16:01:15.967Z,2.47
2018-07-01T16:03:44.442Z,2.55
2018-07-01T16:06:13.031Z,2.72
2018-07-01T16:08:41.876Z,2.50
2018-07-01T16:11:10.415Z,2.50
2018-07-01T16:13:38.947Z,2.72
2018-07-01T16:16:07.506Z,2.60
2018-07-01T16:18:36.364Z,2.70
2018-07-01T16:21:04.916Z,2.50
2018-07-01T16:23:33.594Z,2.40
2018-07-01T16:26:08.341Z,2.30
2018-07-01T16:28:40.786Z,2.50
2018-07-01T16:31:09.756Z,2.90
2018-07-01T16:33:38.447Z,2.52
2018-07-01T16:36:07.095Z,2.52
2018-07-01T16:38:35.563Z,2.83
2018-07-01T16:41:04.530Z,2.33
2018-07-01T16:43:33.096Z,2.77
2018-07-01T16:46:01.794Z,2.50
2018-07-01T16:48:30.296Z,2.20
2018-07-01T16:50:59.039Z,2.27
2018-07-01T16:53:27.628Z,2.37
2018-07-01T16:55:58.834Z,2.58
2018-07-01T16:58:27.327Z,2.60
2018-07-01T17:00:55.883Z,3.45
2018-07-01T17:03:24.423Z,2.70
2018-07-01T17:05:52.989Z,2.80
2018-07-01T17:08:21.560Z,2.62
2018-07-01T17:10:50.294Z,2.47
2018-07-01T17:13:18.808Z,2.90
2018-07-01T17:15:47.296Z,3.45
2018-07-01T17:18:15.799Z,2.52
2018-07-01T17:20:44.456Z,2.50
2018-07-01T17:23:13.038Z,2.15
2018-07-01T17:25:46.907Z,1.98
2018-07-01T17:28:15.735Z,2.35
2018-07-01T17:30:44.275Z,2.62
2018-07-01T17:33:21.520Z,2.12
2018-07-01T17:35:50.005Z,2.17
2018-07-01T17:38:18.557Z,2.00
2018-07-01T17:40:47.047Z,2.52
2018-07-01T17:43:15.611Z,2.10
2018-07-01T17:45:44.235Z,2.15
2018-07-01T17:48:12.822Z,2.50
2018-07-01T17:50:41.700Z,2.33
2018-07-01T17:53:17.371Z,2.10
2018-07-01T17:55:45.815Z,2.42
2018-07-01T17:58:14.401Z,2.20
2018-07-01T18:00:42.993Z,2.27
2018-07-01T18:03:11.738Z,2.20
2018-07-01T18:05:40.319Z,2.00
2018-07-01T18:08:08.847Z,2.87
2018-07-01T18:10:37.340Z,2.22
2018-07-01T18:13:05.985Z,2.22
2018-07-01T18:15:34.577Z,2.58
2018-07-01T18:18:03.146Z,2.92
2018-07-01T18:20:31.720Z,3.00
2018-07-01T18:23:27.413Z,3.08
2018-07-01T18:25:29.470Z,3.65
2018-07-01T18:28:11.463Z,3.95
2018-07-01T18:30:26.766Z,3.55
2018-07-01T18:32:55.275Z,3.37
2018-07-01T18:35:23.843Z,3.12
2018-07-01T18:37:52.639Z,4.75
2018-07-01T18:40:21.220Z,4.00
2018-07-01T18:42:49.750Z,3.55
2018-07-01T18:45:18.302Z,3.08
2018-07-01T18:47:46.898Z,3.52
2018-07-01T18:50:15.393Z,3.45
2018-07-01T18:52:43.864Z,3.22
2018-07-01T18:55:12.555Z,3.45
2018-07-01T18:57:41.125Z,3.60
2018-07-01T19:00:09.758Z,3.00
2018-07-01T19:02:38.326Z,3.00
2018-07-01T19:05:06.862Z,2.98
2018-07-01T19:07:35.446Z,2.58
2018-07-01T19:10:04.045Z,2.80
2018-07-01T19:12:32.672Z,2.87
2018-07-01T19:15:01.112Z,2.60
2018-07-01T19:17:29.603Z,2.60
2018-07-01T19:19:58.050Z,3.20
2018-07-01T19:22:27.092Z,2.60
2018-07-01T19:24:55.543Z,2.62
2018-07-01T19:27:24.107Z,2.95
2018-07-01T19:29:52.617Z,3.10
2018-07-01T19:32:21.349Z,2.92
2018-07-01T19:34:49.880Z,3.02
2018-07-01T19:37:18.438Z,2.40
2018-07-01T19:39:46.970Z,3.30
2018-07-01T19:42:15.512Z,3.08
2018-07-01T19:44:44.172Z,2.92
2018-07-01T19:47:12.908Z,2.75
2018-07-01T19:49:41.391Z,2.37
2018-07-01T19:52:10.003Z,2.35
2018-07-01T19:54:38.457Z,2.27
2018-07-01T19:57:07.036Z,2.20
2018-07-01T19:59:35.575Z,2.72
2018-07-01T20:02:04.555Z,2.00
2018-07-01T20:04:33.112Z,2.47
2018-07-01T20:07:01.611Z,2.20
2018-07-01T20:09:30.076Z,2.80
2018-07-01T20:11:58.806Z,2.77
2018-07-01T20:14:27.582Z,2.50
2018-07-01T20:16:56.158Z,2.60
2018-07-01T20:19:24.784Z,2.37
2018-07-01T20:21:53.679Z,2.33
2018-07-01T20:24:22.267Z,2.25
2018-07-01T20:26:51.006Z,2.55
2018-07-01T20:29:19.593Z,2.83
2018-07-01T20:31:48.027Z,2.60
2018-07-01T20:34:16.569Z,2.42
2018-07-01T20:36:45.089Z,2.62
2018-07-01T20:39:14.332Z,2.70
2018-07-01T20:41:43.040Z,2.80
2018-07-01T20:44:11.773Z,2.33
2018-07-01T20:46:40.339Z,2.20
2018-07-01T20:49:08.882Z,2.25
2018-07-01T20:51:37.580Z,2.20
2018-07-01T20:54:06.406Z,1.70
2018-07-01T20:56:35.025Z,2.30
2018-07-01T20:59:03.594Z,2.30
2018-07-01T21:01:32.162Z,2.30
2018-07-01T21:04:00.638Z,2.50
2018-07-01T21:06:29.174Z,2.17
2018-07-01T21:08:57.813Z,2.42
2018-07-01T21:11:26.390Z,2.20
2018-07-01T21:13:54.947Z,2.40
2018-07-01T21:16:23.374Z,2.30
2018-07-01T21:18:51.851Z,2.02
2018-07-01T21:21:20.512Z,2.05
2018-07-01T21:23:49.041Z,2.50
2018-07-01T21:26:17.520Z,2.72
2018-07-01T21:28:46.066Z,2.33
2018-07-01T21:31:14.566Z,2.15
2018-07-01T21:33:43.154Z,2.00
2018-07-01T21:36:11.630Z,1.92
2018-07-01T21:38:40.210Z,2.37
2018-07-01T21:41:08.686Z,2.95
2018-07-01T21:43:37.175Z,2.65
2018-07-01T21:46:05.775Z,2.42
2018-07-01T21:48:34.274Z,2.50
2018-07-01T21:51:02.942Z,2.80
2018-07-01T21:53:31.395Z,2.40
2018-07-01T21:55:59.945Z,2.52
2018-07-01T21:58:28.474Z,2.10
2018-07-01T22:00:57.003Z,2.85
2018-07-01T22:03:25.626Z,2.30
2018-07-01T22:05:54.106Z,2.30
2018-07-01T22:08:22.569Z,2.75
2018-07-01T22:12:03.083Z,2.80
2018-07-01T22:14:37.479Z,2.37
2018-07-01T22:17:08.435Z,2.25
2018-07-01T22:19:37.303Z,2.47
2018-07-01T22:22:06.271Z,2.33
2018-07-01T22:24:36.001Z,2.30
2018-07-01T22:27:04.909Z,2.08
2018-07-01T22:29:33.418Z,2.02
2018-07-01T22:32:01.947Z,1.80
2018-07-01T22:34:30.475Z,2.20
2018-07-01T22:36:58.960Z,2.08
2018-07-01T22:39:28.816Z,2.12
2018-07-01T22:41:58.299Z,2.50
2018-07-01T22:44:27.142Z,2.47
2018-07-01T22:46:55.789Z,2.35
2018-07-01T22:49:24.347Z,1.77
2018-07-01T22:51:52.925Z,2.10
2018-07-01T22:54:21.548Z,2.37
2018-07-01T22:56:50.145Z,2.52
2018-07-01T22:59:18.641Z,1.75
2018-07-01T23:02:58.566Z,2.40
2018-07-01T23:05:27.218Z,1.72
2018-07-01T23:07:55.711Z,2.02
2018-07-01T23:10:25.523Z,2.08
2018-07-01T23:12:54.904Z,2.20
2018-07-01T23:15:23.466Z,2.00
2018-07-01T23:17:52.387Z,2.30
2018-07-01T23:20:20.946Z,2.15
2018-07-01T23:22:49.390Z,1.95
2018-07-01T23:25:17.891Z,2.10
2018-07-01T23:27:50.574Z,1.95
2018-07-01T23:30:19.062Z,1.60
2018-07-01T23:32:47.537Z,1.92
2018-07-01T23:35:16.061Z,1.62
2018-07-01T23:37:44.657Z,1.77
2018-07-01T23:40:13.333Z,1.75
2018-07-01T23:42:42.433Z,1.75
2018-07-01T23:45:13.382Z,1.62
2018-07-01T23:47:42.194Z,1.62
2018-07-01T23:50:10.733Z,1.42
2018-07-01T23:52:39.326Z,2.35
2018-07-01T23:55:08.247Z,1.70
2018-07-01T23:57:36.782Z,1.80
